Kirchdorf, Austria
Current Conditions -  °F | °C
As of 11:50 AM on Monday 20 Oct 2014 (Local Time) from LOWL Reporting Station
Broken Clouds Broken Clouds  
Wind Chill: 52°   Ceiling: 6900
Heat Index: 52°   Visibility: 6mi
Dew Point: 50°   Wind: 2mph
Humidity: 94%   Direction: NA
Pressure: 30.12"   Gusts: NA
Location:  47.92°N, 14.13°E
Report Text: LOWL 200950Z VRB02KT 9999 FEW060 BKN069 BKN090 11/10 Q1020 NOSIG
Loading
Personal Weather Stations






























Interactive Weather Map
Tropical Storm Tracking
New forecast layout! Learn more

10-Day Weather Forecast

Advertisements
Track Severe Weather on mobile